Time;durP1;ratioP1;P1;durP2;ratioP2;P2;SDS_P1;SDS_P2;PMS_P1;PMS_P2;Temp;Humidity;BMP_temperature;BMP_pressure;BME280_temperature;BME280_humidity;BME280_pressure;Samples;Min_cycle;Max_cycle;Signal;HPM_P1;HPM_P2
2023/07/04 00:01:09;;;;;;;12.43;3.77;;;16.70;5.80;;;;;;5085438;28;20168;-84
2023/07/04 00:03:36;;;;;;;14.60;4.37;;;16.70;8.00;;;;;;5073982;28;20680;-84
2023/07/04 00:06:05;;;;;;;13.13;4.17;;;16.60;10.90;;;;;;5072854;28;20272;-84
2023/07/04 00:08:33;;;;;;;16.40;4.70;;;16.60;11.50;;;;;;5074083;28;20628;-84
2023/07/04 00:11:01;;;;;;;15.17;3.93;;;16.50;13.80;;;;;;5073100;28;20525;-84
2023/07/04 00:13:28;;;;;;;13.03;3.93;;;16.50;17.60;;;;;;5075183;28;20177;-85
2023/07/04 00:15:54;;;;;;;11.60;3.83;;;16.50;21.60;;;;;;5074377;28;20339;-84
2023/07/04 00:18:22;;;;;;;13.33;4.17;;;16.50;18.00;;;;;;5074110;28;20185;-83
2023/07/04 00:20:54;;;;;;;14.23;4.90;;;16.50;18.70;;;;;;5073017;28;20188;-83
2023/07/04 00:23:29;;;;;;;12.27;4.30;;;16.50;18.90;;;;;;5074543;28;20215;-84
2023/07/04 00:25:55;;;;;;;18.90;4.80;;;16.50;18.60;;;;;;5072752;28;20190;-84
2023/07/04 00:28:24;;;;;;;16.27;4.13;;;16.50;21.20;;;;;;5073368;28;20602;-84
2023/07/04 00:30:53;;;;;;;12.37;4.20;;;16.50;20.70;;;;;;5073003;28;20199;-85
2023/07/04 00:33:21;;;;;;;17.77;4.30;;;16.40;23.00;;;;;;5072728;28;20249;-84
2023/07/04 00:35:47;;;;;;;15.90;4.73;;;16.50;21.40;;;;;;5073690;28;20168;-85
2023/07/04 00:38:14;;;;;;;14.30;3.87;;;16.40;23.70;;;;;;5075025;28;20175;-84
2023/07/04 00:40:40;;;;;;;20.47;5.10;;;16.40;24.60;;;;;;5073069;28;20187;-86
2023/07/04 00:43:09;;;;;;;14.23;4.00;;;16.40;23.60;;;;;;5073293;28;20215;-86
2023/07/04 00:45:43;;;;;;;14.23;4.13;;;16.30;26.00;;;;;;5074223;28;20160;-84
2023/07/04 00:48:13;;;;;;;16.27;4.27;;;16.30;29.40;;;;;;5076755;28;20172;-83
2023/07/04 00:50:45;;;;;;;16.17;4.63;;;16.30;28.40;;;;;;5080742;28;20513;-84
2023/07/04 00:53:13;;;;;;;21.10;4.63;;;16.30;29.10;;;;;;5078965;28;20222;-85
2023/07/04 00:55:44;;;;;;;12.63;3.70;;;16.20;32.80;;;;;;5075304;28;20169;-84
2023/07/04 00:58:10;;;;;;;15.87;4.83;;;16.20;33.00;;;;;;5072634;28;20537;-84
2023/07/04 01:00:37;;;;;;;16.43;4.57;;;16.30;32.60;;;;;;5072681;28;20179;-83
2023/07/04 01:03:05;;;;;;;15.60;4.03;;;16.30;31.60;;;;;;5072367;28;20208;-84
2023/07/04 01:06:00;;;;;;;14.80;4.27;;;16.20;35.40;;;;;;5072451;28;20169;-84
2023/07/04 01:08:32;;;;;;;18.77;5.30;;;16.20;36.80;;;;;;5072803;28;20184;-83
2023/07/04 01:11:03;;;;;;;14.23;3.93;;;16.20;37.50;;;;;;5081277;28;20251;-84
2023/07/04 01:13:35;;;;;;;15.40;3.93;;;16.10;40.00;;;;;;5096030;28;20168;-83
2023/07/04 01:16:06;;;;;;;13.43;3.90;;;16.10;42.00;;;;;;5090070;28;20179;-85
2023/07/04 01:18:32;;;;;;;19.97;5.23;;;16.20;41.80;;;;;;5080880;28;20277;-83
2023/07/04 01:21:05;;;;;;;19.37;4.50;;;16.20;41.50;;;;;;5075290;28;20628;-84
2023/07/04 01:24:03;;;;;;;16.03;4.50;;;16.10;43.60;;;;;;5073390;28;20266;-84
2023/07/04 01:26:39;;;;;;;12.93;3.80;;;16.10;46.10;;;;;;5073369;28;20180;-83
2023/07/04 01:29:08;;;;;;;13.00;4.03;;;16.10;48.10;;;;;;5074826;28;20168;-83
2023/07/04 01:31:35;;;;;;;10.93;4.07;;;16.20;42.90;;;;;;5074560;28;20251;-83
2023/07/04 01:34:05;;;;;;;20.57;4.83;;;16.20;40.80;;;;;;5073109;28;20266;-85
2023/07/04 01:36:34;;;;;;;18.17;4.73;;;16.20;41.00;;;;;;5073003;28;20173;-84
2023/07/04 01:39:01;;;;;;;20.73;4.80;;;16.20;40.90;;;;;;5072205;28;20164;-84
2023/07/04 01:41:28;;;;;;;19.67;4.27;;;16.20;45.00;;;;;;5073620;28;20591;-84
2023/07/04 01:43:59;;;;;;;20.00;5.43;;;16.00;48.20;;;;;;5072236;28;20265;-84
2023/07/04 01:46:25;;;;;;;16.27;5.10;;;16.10;48.40;;;;;;5072317;28;20169;-84
2023/07/04 01:48:51;;;;;;;16.93;4.33;;;16.00;50.80;;;;;;5072600;28;20180;-84
2023/07/04 01:51:23;;;;;;;13.70;4.80;;;16.00;54.00;;;;;;5072638;28;20173;-84
2023/07/04 01:53:49;;;;;;;15.77;4.87;;;16.00;51.70;;;;;;5072328;28;20174;-85
2023/07/04 01:56:15;;;;;;;15.60;4.40;;;16.10;50.50;;;;;;5073390;28;20551;-85
2023/07/04 01:58:40;;;;;;;15.50;4.83;;;16.10;52.40;;;;;;5073771;28;20290;-83
2023/07/04 02:01:06;;;;;;;15.63;4.80;;;16.00;53.10;;;;;;5072333;28;20247;-84
2023/07/04 02:03:31;;;;;;;17.27;4.67;;;16.00;55.60;;;;;;5073288;28;20688;-83
2023/07/04 02:05:57;;;;;;;17.57;5.00;;;16.00;56.90;;;;;;5073519;28;20262;-84
2023/07/04 02:08:23;;;;;;;17.40;4.40;;;15.90;58.00;;;;;;5071987;28;20176;-84
2023/07/04 02:10:49;;;;;;;17.27;4.50;;;15.80;60.50;;;;;;5073095;28;20191;-86
2023/07/04 02:13:15;;;;;;;16.67;4.50;;;15.80;62.80;;;;;;5072160;28;20180;-86
2023/07/04 02:15:40;;;;;;;18.07;5.77;;;15.90;60.20;;;;;;5073394;28;20929;-84
2023/07/04 02:18:07;;;;;;;19.90;5.03;;;15.90;59.20;;;;;;5073085;28;20180;-84
2023/07/04 02:20:33;;;;;;;16.07;4.30;;;15.80;60.90;;;;;;5073893;28;20172;-84
2023/07/04 02:22:58;;;;;;;15.40;4.53;;;15.80;62.20;;;;;;5071810;28;20215;-83
2023/07/04 02:25:24;;;;;;;16.20;5.23;;;15.70;67.30;;;;;;5071886;28;20259;-85
2023/07/04 02:27:50;;;;;;;16.53;4.47;;;15.70;70.20;;;;;;5071797;28;20189;-84
2023/07/04 02:30:15;;;;;;;16.73;4.47;;;15.60;72.90;;;;;;5071837;28;20177;-84
2023/07/04 02:32:41;;;;;;;20.57;4.60;;;15.80;67.20;;;;;;5071929;28;20469;-83
2023/07/04 02:35:07;;;;;;;16.87;5.13;;;15.70;71.60;;;;;;5092234;28;20178;-83
2023/07/04 02:37:33;;;;;;;18.20;4.63;;;15.70;69.60;;;;;;5094658;28;20167;-84
2023/07/04 02:39:59;;;;;;;18.70;4.67;;;15.70;72.60;;;;;;5094358;28;20684;-84
2023/07/04 02:42:25;;;;;;;18.73;5.53;;;15.70;74.00;;;;;;5095303;28;20635;-85
2023/07/04 02:44:51;;;;;;;14.63;4.80;;;15.70;71.30;;;;;;5095346;28;20183;-84
2023/07/04 02:47:18;;;;;;;18.87;4.73;;;15.60;73.60;;;;;;5098132;28;20175;-84
2023/07/04 02:49:44;;;;;;;15.30;4.20;;;15.70;75.80;;;;;;5098734;28;20612;-84
2023/07/04 02:52:10;;;;;;;18.03;4.67;;;15.60;75.80;;;;;;5098522;28;20189;-84
2023/07/04 02:54:35;;;;;;;13.03;4.20;;;15.60;76.60;;;;;;5096312;28;20651;-85
2023/07/04 02:57:01;;;;;;;16.40;5.00;;;15.60;72.60;;;;;;5096358;28;20164;-84
2023/07/04 02:59:27;;;;;;;16.37;4.27;;;15.60;75.70;;;;;;5095948;28;20176;-83
2023/07/04 03:01:53;;;;;;;16.30;3.83;;;15.50;78.00;;;;;;5097331;28;20647;-83
2023/07/04 03:04:20;;;;;;;14.37;4.50;;;15.50;82.50;;;;;;5094566;28;20203;-83
2023/07/04 03:06:45;;;;;;;16.67;4.93;;;15.40;84.00;;;;;;5096499;28;20164;-83
2023/07/04 03:09:11;;;;;;;16.87;4.77;;;15.40;84.80;;;;;;5095165;28;20644;-85
2023/07/04 03:11:37;;;;;;;16.50;4.57;;;15.40;83.10;;;;;;5094350;28;20723;-85
2023/07/04 03:14:03;;;;;;;12.20;4.17;;;15.40;85.00;;;;;;5095049;28;20171;-84
2023/07/04 03:16:28;;;;;;;12.77;4.63;;;15.50;84.90;;;;;;5094850;28;20184;-85
2023/07/04 03:18:55;;;;;;;17.87;4.70;;;15.50;83.00;;;;;;5097219;28;20217;-84
2023/07/04 03:21:21;;;;;;;15.33;4.10;;;15.40;83.20;;;;;;5096254;28;20719;-85
2023/07/04 03:23:46;;;;;;;14.33;5.10;;;15.50;84.60;;;;;;5095024;28;20302;-84
2023/07/04 03:26:12;;;;;;;13.57;5.23;;;15.50;82.90;;;;;;5094703;28;20724;-84
2023/07/04 03:28:38;;;;;;;12.77;4.33;;;15.40;88.60;;;;;;5093986;28;20167;-84
2023/07/04 03:31:04;;;;;;;19.50;4.93;;;15.40;86.60;;;;;;5096182;28;20167;-82
2023/07/04 03:33:30;;;;;;;16.50;4.77;;;15.30;90.30;;;;;;5095796;28;20507;-84
2023/07/04 03:35:57;;;;;;;18.00;4.57;;;15.30;89.00;;;;;;5095686;28;20179;-84
2023/07/04 03:38:23;;;;;;;21.33;5.37;;;15.30;88.10;;;;;;5096054;28;20167;-83
2023/07/04 03:40:50;;;;;;;20.23;4.77;;;15.30;90.00;;;;;;5094310;28;20168;-83
2023/07/04 03:43:16;;;;;;;14.50;4.47;;;15.30;91.10;;;;;;5094216;28;20282;-85
2023/07/04 03:45:44;;;;;;;17.80;4.60;;;15.30;91.90;;;;;;5094303;28;20687;-85
2023/07/04 03:48:10;;;;;;;19.07;5.23;;;15.30;90.30;;;;;;5095379;28;20168;-84
2023/07/04 03:50:37;;;;;;;16.50;4.50;;;15.20;92.10;;;;;;5094690;28;20178;-83
2023/07/04 03:53:03;;;;;;;16.07;4.70;;;15.10;93.90;;;;;;5094292;28;20263;-83
2023/07/04 03:55:28;;;;;;;17.33;5.30;;;15.10;95.50;;;;;;5094688;28;20241;-82
2023/07/04 03:57:54;;;;;;;15.30;4.73;;;15.10;95.20;;;;;;5094135;28;20168;-83
2023/07/04 04:00:20;;;;;;;13.87;4.30;;;15.10;94.80;;;;;;5093866;28;20172;-83
2023/07/04 04:02:45;;;;;;;20.37;5.30;;;15.10;95.20;;;;;;5093231;28;20290;-83
2023/07/04 04:05:12;;;;;;;17.67;4.97;;;15.10;95.80;;;;;;5093791;28;20194;-83
2023/07/04 04:07:37;;;;;;;16.37;4.97;;;15.30;94.70;;;;;;5093802;28;20171;-83
2023/07/04 04:10:03;;;;;;;17.17;4.90;;;15.20;93.20;;;;;;5093726;28;20168;-83
2023/07/04 04:12:29;;;;;;;18.20;5.47;;;15.20;93.90;;;;;;5096780;28;20172;-84
2023/07/04 04:14:54;;;;;;;17.70;5.07;;;15.20;93.20;;;;;;5116945;28;20168;-83
2023/07/04 04:17:20;;;;;;;18.13;4.90;;;15.30;93.20;;;;;;5111599;28;20222;-83
2023/07/04 04:19:46;;;;;;;17.23;4.67;;;15.30;91.90;;;;;;5104521;28;20193;-84
2023/07/04 04:22:11;;;;;;;15.40;5.25;;;15.30;90.60;;;;;;5097212;28;20171;-85
2023/07/04 04:24:40;;;;;;;20.10;5.27;;;15.20;92.80;;;;;;5094004;28;20243;-83
2023/07/04 04:27:13;;;;;;;14.37;4.30;;;15.50;91.60;;;;;;5093398;28;20195;-82
2023/07/04 04:29:39;;;;;;;20.73;4.97;;;15.30;90.50;;;;;;5093323;28;20651;-83
2023/07/04 04:32:05;;;;;;;15.77;4.50;;;15.20;92.20;;;;;;5093155;28;20164;-84
2023/07/04 04:34:30;;;;;;;17.30;4.30;;;15.20;91.90;;;;;;5094228;28;20266;-84
2023/07/04 04:36:56;;;;;;;19.00;4.03;;;15.20;92.80;;;;;;5100752;28;20179;-83
2023/07/04 04:39:22;;;;;;;14.80;4.63;;;15.20;91.90;;;;;;5118075;28;20159;-83
2023/07/04 04:41:52;;;;;;;19.63;4.93;;;15.30;92.40;;;;;;5113886;28;20179;-85
2023/07/04 04:44:18;;;;;;;17.53;5.10;;;15.20;91.60;;;;;;5104158;28;20562;-84
2023/07/04 04:46:48;;;;;;;19.23;4.93;;;15.30;89.50;;;;;;5098742;28;20206;-84
2023/07/04 04:49:17;;;;;;;13.97;4.57;;;15.40;89.20;;;;;;5093813;28;20182;-83
2023/07/04 04:51:44;;;;;;;17.10;4.93;;;15.40;89.60;;;;;;5093823;28;20254;-83
2023/07/04 04:54:12;;;;;;;19.00;4.70;;;15.50;84.70;;;;;;5093404;28;20255;-85
2023/07/04 04:56:37;;;;;;;20.97;5.50;;;15.60;79.20;;;;;;5092299;28;20168;-85
2023/07/04 04:59:03;;;;;;;16.97;4.73;;;15.70;75.20;;;;;;5094561;28;20186;-83
2023/07/04 05:01:29;;;;;;;13.70;5.07;;;15.70;71.30;;;;;;5092675;28;20175;-84
2023/07/04 05:03:55;;;;;;;15.80;4.40;;;15.70;67.80;;;;;;5093866;28;20695;-85
2023/07/04 05:06:24;;;;;;;14.23;4.43;;;15.70;66.60;;;;;;5093038;28;20519;-84
2023/07/04 05:08:51;;;;;;;15.90;4.57;;;15.70;67.60;;;;;;5095398;28;20183;-83
2023/07/04 05:11:17;;;;;;;14.60;4.53;;;15.70;61.10;;;;;;5095425;28;20225;-83
2023/07/04 05:13:47;;;;;;;18.70;5.30;;;15.70;61.60;;;;;;5095143;28;20167;-84
2023/07/04 05:16:16;;;;;;;14.97;4.90;;;15.80;60.90;;;;;;5095655;28;20179;-85
2023/07/04 05:18:43;;;;;;;16.43;5.30;;;15.80;61.00;;;;;;5099813;28;20551;-83
2023/07/04 05:21:17;;;;;;;14.43;4.70;;;15.90;56.50;;;;;;5099388;28;20164;-82
2023/07/04 05:23:45;;;;;;;16.20;4.80;;;16.00;52.80;;;;;;5096602;28;20223;-84
2023/07/04 05:26:12;;;;;;;12.60;4.87;;;15.90;53.60;;;;;;5096897;28;20183;-86
2023/07/04 05:28:38;;;;;;;14.07;4.83;;;15.80;55.00;;;;;;5102044;28;20178;-83
2023/07/04 05:31:07;;;;;;;18.80;4.83;;;15.90;56.40;;;;;;5096838;28;20737;-83
2023/07/04 05:33:33;;;;;;;15.40;4.93;;;16.00;56.70;;;;;;5098741;28;20179;-84
2023/07/04 05:36:09;;;;;;;18.63;4.83;;;16.10;49.80;;;;;;5116332;28;20200;-84
2023/07/04 05:38:37;;;;;;;16.63;4.80;;;16.10;47.60;;;;;;5113158;28;20178;-85
2023/07/04 05:41:12;;;;;;;13.00;4.43;;;16.10;48.00;;;;;;5110676;28;20167;-83
2023/07/04 05:43:39;;;;;;;19.37;5.03;;;16.00;50.00;;;;;;5112516;28;20246;-83
2023/07/04 05:46:06;;;;;;;16.70;5.20;;;16.10;51.30;;;;;;5116022;28;20156;-83
2023/07/04 05:48:33;;;;;;;17.20;5.50;;;16.10;50.80;;;;;;5116630;28;20370;-84
2023/07/04 05:51:01;;;;;;;18.40;5.13;;;16.00;51.80;;;;;;5116186;28;20206;-84
2023/07/04 05:53:29;;;;;;;14.23;4.60;;;16.10;51.30;;;;;;5113797;28;20210;-83
2023/07/04 05:56:11;;;;;;;16.30;4.73;;;16.10;49.80;;;;;;5108839;28;20178;-81
2023/07/04 05:58:38;;;;;;;12.37;4.77;;;16.20;47.50;;;;;;5107057;28;20168;-81
2023/07/04 06:01:27;;;;;;;12.47;3.77;;;16.20;48.50;;;;;;5117527;28;20221;-82
2023/07/04 06:03:53;;;;;;;14.93;4.23;;;16.30;46.90;;;;;;5116039;28;20241;-84
2023/07/04 06:06:22;;;;;;;16.00;5.10;;;16.40;45.90;;;;;;5116380;28;20239;-83
2023/07/04 06:08:49;;;;;;;18.27;5.63;;;16.50;43.90;;;;;;5117415;28;20187;-82
2023/07/04 06:11:15;;;;;;;16.10;5.17;;;16.50;40.60;;;;;;5117978;28;20198;-82
2023/07/04 06:13:41;;;;;;;17.33;5.83;;;16.50;38.60;;;;;;5116190;28;20164;-80
2023/07/04 06:16:07;;;;;;;12.10;4.53;;;16.50;38.50;;;;;;5119559;28;20206;-81
2023/07/04 06:18:34;;;;;;;15.20;4.87;;;16.60;36.50;;;;;;5120195;28;20159;-84
2023/07/04 06:21:19;;;;;;;12.50;5.17;;;16.60;36.90;;;;;;5119678;28;20227;-81
2023/07/04 06:23:45;;;;;;;18.63;4.83;;;16.70;34.40;;;;;;5120829;28;20187;-84
2023/07/04 06:26:12;;;;;;;14.50;4.87;;;16.70;31.80;;;;;;5117422;28;20194;-81
2023/07/04 06:28:40;;;;;;;14.00;4.77;;;16.80;37.10;;;;;;5100453;28;20172;-83
2023/07/04 06:31:15;;;;;;;14.93;4.77;;;17.10;31.10;;;;;;5105750;28;20171;-85
2023/07/04 06:33:41;;;;;;;15.33;4.90;;;17.10;21.80;;;;;;5104765;28;20231;-84
2023/07/04 06:36:12;;;;;;;16.53;4.67;;;17.10;22.90;;;;;;5107469;28;20171;-84
2023/07/04 06:38:42;;;;;;;13.83;4.70;;;17.00;26.80;;;;;;5111729;28;20162;-83
2023/07/04 06:41:13;;;;;;;13.23;5.13;;;17.10;23.30;;;;;;5109452;28;20194;-84
2023/07/04 06:43:43;;;;;;;15.23;4.50;;;17.20;22.60;;;;;;5108086;28;20268;-84
2023/07/04 06:46:10;;;;;;;17.43;5.30;;;17.30;12.10;;;;;;5108267;28;20186;-85
2023/07/04 06:48:42;;;;;;;11.97;4.53;;;17.40;12.30;;;;;;5108795;28;20179;-86
2023/07/04 06:51:14;;;;;;;12.53;4.03;;;17.30;11.20;;;;;;5104650;28;20205;-86
2023/07/04 06:53:46;;;;;;;13.83;4.97;;;17.40;13.30;;;;;;5106281;28;20159;-86
2023/07/04 06:56:14;;;;;;;12.97;4.60;;;17.40;6.30;;;;;;5105682;28;20174;-85
2023/07/04 06:58:45;;;;;;;16.23;5.30;;;17.40;10.60;;;;;;5104307;28;20188;-84
2023/07/04 07:01:14;;;;;;;14.37;4.60;;;17.50;6.00;;;;;;5106859;28;20189;-86
2023/07/04 07:03:40;;;;;;;17.33;5.10;;;17.40;5.40;;;;;;5103590;28;20217;-85
2023/07/04 07:06:11;;;;;;;13.37;4.60;;;17.30;7.30;;;;;;5117101;28;20177;-85
2023/07/04 07:08:37;;;;;;;13.90;4.47;;;17.30;5.10;;;;;;5102921;28;20172;-84
2023/07/04 07:11:10;;;;;;;14.07;4.53;;;17.40;1.10;;;;;;5106687;28;20200;-83
2023/07/04 07:13:41;;;;;;;15.47;5.00;;;17.50;1.00;;;;;;5084988;28;20186;-86
2023/07/04 07:16:22;;;;;;;15.77;4.87;;;17.50;1.00;;;;;;5098907;28;20600;-85
2023/07/04 07:18:54;;;;;;;16.33;4.73;;;17.40;1.00;;;;;;5096656;28;20177;-85
2023/07/04 07:21:24;;;;;;;15.20;5.30;;;17.50;1.00;;;;;;5096198;28;20205;-86
2023/07/04 07:23:52;;;;;;;13.53;4.50;;;17.60;1.00;;;;;;5096376;28;20212;-84
2023/07/04 07:26:20;;;;;;;12.70;4.53;;;17.50;1.00;;;;;;5096837;28;20211;-84
2023/07/04 07:28:46;;;;;;;14.03;4.60;;;17.60;1.00;;;;;;5095563;28;20175;-85
2023/07/04 07:31:18;;;;;;;17.80;5.03;;;17.80;1.00;;;;;;5098122;28;20623;-84
2023/07/04 07:33:48;;;;;;;15.83;4.43;;;17.90;1.00;;;;;;5096783;28;20735;-84
2023/07/04 07:36:27;;;;;;;14.90;4.97;;;18.10;1.00;;;;;;5095644;28;20259;-86
2023/07/04 07:38:55;;;;;;;15.83;5.50;;;18.10;1.00;;;;;;5118639;28;20185;-81
2023/07/04 07:41:25;;;;;;;12.07;4.47;;;18.20;1.00;;;;;;5114799;28;20187;-84
2023/07/04 07:43:52;;;;;;;15.30;4.77;;;18.30;1.00;;;;;;5110828;28;20220;-84
2023/07/04 07:46:21;;;;;;;14.97;4.80;;;18.30;1.00;;;;;;5099766;28;20187;-85
2023/07/04 07:48:59;;;;;;;13.40;3.97;;;18.50;1.00;;;;;;5094876;28;20528;-85
2023/07/04 07:51:26;;;;;;;16.50;4.40;;;18.30;1.00;;;;;;5095533;28;20209;-85
2023/07/04 07:53:53;;;;;;;15.53;4.67;;;18.10;1.00;;;;;;5096385;28;20182;-84
2023/07/04 07:56:21;;;;;;;10.70;4.20;;;18.10;1.00;;;;;;5094625;28;20268;-83
2023/07/04 07:58:47;;;;;;;12.57;4.20;;;18.20;1.00;;;;;;5095325;28;20180;-85
2023/07/04 08:01:18;;;;;;;12.90;4.60;;;18.30;1.00;;;;;;5112285;28;20169;-84
2023/07/04 08:03:44;;;;;;;10.67;4.63;;;18.40;1.00;;;;;;5118153;28;20220;-85
2023/07/04 08:06:25;;;;;;;11.57;3.97;;;18.50;1.00;;;;;;5112696;28;20623;-84
2023/07/04 08:08:54;;;;;;;9.77;3.87;;;18.30;1.00;;;;;;5110180;28;20268;-85
2023/07/04 08:11:23;;;;;;;13.47;4.30;;;18.30;1.00;;;;;;5097323;28;20282;-84
2023/07/04 08:13:50;;;;;;;14.33;4.10;;;18.20;1.00;;;;;;5095298;28;20267;-83
2023/07/04 08:16:18;;;;;;;11.47;3.83;;;18.20;1.00;;;;;;5098690;28;20192;-85
2023/07/04 08:18:45;;;;;;;12.20;4.10;;;18.50;1.00;;;;;;5097827;28;20185;-83
2023/07/04 08:21:10;;;;;;;12.37;4.33;;;18.70;1.00;;;;;;5095858;28;20520;-86
2023/07/04 08:23:36;;;;;;;12.97;3.97;;;18.60;1.00;;;;;;5094551;28;20260;-85
2023/07/04 08:26:02;;;;;;;14.67;4.17;;;18.50;1.00;;;;;;5093766;28;20203;-86
2023/07/04 08:28:27;;;;;;;9.93;3.60;;;18.60;1.00;;;;;;5094933;28;20183;-84
2023/07/04 08:31:05;;;;;;;12.67;4.10;;;18.60;1.00;;;;;;5095164;28;20196;-84
2023/07/04 08:33:32;;;;;;;11.67;4.30;;;18.70;1.00;;;;;;5095883;28;20265;-84
2023/07/04 08:36:01;;;;;;;10.13;3.80;;;18.90;1.00;;;;;;5094652;28;20175;-82
2023/07/04 08:38:27;;;;;;;12.73;3.97;;;18.90;1.00;;;;;;5096171;28;20168;-83
2023/07/04 08:40:56;;;;;;;13.00;3.70;;;18.90;1.00;;;;;;5093687;28;20163;-86
2023/07/04 08:43:41;;;;;;;11.37;3.60;;;19.10;1.00;;;;;;5093846;28;20208;-82
2023/07/04 08:46:11;;;;;;;7.73;3.27;;;19.20;1.00;;;;;;5083734;28;20289;-84
2023/07/04 08:48:39;;;;;;;9.17;3.47;;;19.20;1.00;;;;;;5073809;28;20188;-85
2023/07/04 08:51:04;;;;;;;9.40;3.67;;;19.20;1.00;;;;;;5072930;28;20233;-85
2023/07/04 08:53:31;;;;;;;10.73;3.90;;;19.00;1.00;;;;;;5073403;28;20206;-84
2023/07/04 08:56:14;;;;;;;8.60;3.37;;;19.00;1.00;;;;;;5074764;28;20225;-84
2023/07/04 08:59:02;;;;;;;10.90;3.73;;;19.00;1.00;;;;;;5073671;28;20169;-86
2023/07/04 09:01:50;;;;;;;13.43;3.60;;;19.00;1.00;;;;;;5074214;28;20189;-86
2023/07/04 09:04:21;;;;;;;8.87;3.43;;;19.20;1.00;;;;;;5075425;28;20213;-84
2023/07/04 09:07:05;;;;;;;7.93;3.60;;;19.50;1.00;;;;;;5076451;28;20251;-85
2023/07/04 09:10:00;;;;;;;10.87;4.00;;;19.80;1.00;;;;;;5076145;28;20167;-85
2023/07/04 09:12:34;;;;;;;10.93;3.60;;;20.00;1.00;;;;;;5086748;28;20235;-85
2023/07/04 09:15:24;;;;;;;12.07;4.00;;;20.10;1.00;;;;;;5075043;28;20168;-85
2023/07/04 09:18:14;;;;;;;11.50;4.10;;;20.20;1.00;;;;;;5073525;28;20168;-86
2023/07/04 09:21:06;;;;;;;12.37;4.70;;;20.10;1.00;;;;;;5065129;28;20179;-84
2023/07/04 09:23:32;;;;;;;10.03;4.30;;;20.10;1.00;;;;;;5070113;28;20223;-86
2023/07/04 09:25:58;;;;;;;11.27;3.70;;;20.10;1.00;;;;;;5075585;28;20192;-84
2023/07/04 09:28:25;;;;;;;12.43;4.40;;;20.00;1.00;;;;;;5080162;28;20232;-84
2023/07/04 09:30:58;;;;;;;11.27;4.20;;;19.90;1.00;;;;;;5094916;28;20164;-84
2023/07/04 09:33:27;;;;;;;12.37;4.80;;;19.90;1.00;;;;;;5096035;28;20234;-83
2023/07/04 09:35:57;;;;;;;15.17;4.53;;;19.90;1.00;;;;;;5096304;28;20180;-85
2023/07/04 09:38:23;;;;;;;11.80;4.30;;;20.00;1.00;;;;;;5092611;28;20180;-83
2023/07/04 09:40:54;;;;;;;12.23;4.40;;;20.10;1.00;;;;;;5094856;28;20154;-83
2023/07/04 09:43:32;;;;;;;11.87;4.30;;;19.90;1.00;;;;;;5095168;28;20222;-85
2023/07/04 09:46:30;;;;;;;11.20;4.63;;;19.80;1.00;;;;;;5087069;28;20189;-84
2023/07/04 09:49:21;;;;;;;12.93;4.57;;;19.80;1.00;;;;;;5088010;28;20197;-85
2023/07/04 09:52:03;;;;;;;12.17;4.50;;;20.00;1.00;;;;;;5083956;28;20155;-85
2023/07/04 09:54:37;;;;;;;12.30;4.00;;;20.20;1.00;;;;;;5083303;28;20259;-85
2023/07/04 09:57:25;;;;;;;14.33;4.47;;;20.30;1.00;;;;;;5084465;28;20185;-84
2023/07/04 09:59:51;;;;;;;13.50;4.80;;;20.40;1.00;;;;;;5085387;28;20215;-85
2023/07/04 10:02:33;;;;;;;12.07;4.20;;;20.40;1.00;;;;;;5082497;28;20179;-85
2023/07/04 10:05:00;;;;;;;11.70;4.53;;;20.50;1.00;;;;;;5080255;28;20181;-84
2023/07/04 10:07:27;;;;;;;12.03;4.10;;;20.60;1.00;;;;;;5082157;28;20168;-87
2023/07/04 10:10:03;;;;;;;11.80;4.30;;;20.60;1.00;;;;;;5085115;28;20175;-86
2023/07/04 10:12:39;;;;;;;9.70;3.83;;;20.60;99.90;;;;;;5094336;28;20713;-84
2023/07/04 10:15:05;;;;;;;10.67;4.53;;;20.40;1.00;;;;;;5080236;28;20171;-85
2023/07/04 10:17:35;;;;;;;14.50;4.10;;;20.50;1.00;;;;;;5078664;28;20168;-87
2023/07/04 10:20:10;;;;;;;9.97;4.07;;;20.60;1.00;;;;;;5078369;28;20636;-84
2023/07/04 10:22:38;;;;;;;10.37;4.57;;;20.70;99.90;;;;;;5079073;28;20173;-87
2023/07/04 10:25:14;;;;;;;11.77;4.70;;;20.80;99.90;;;;;;5078736;28;20211;-87
2023/07/04 10:27:43;;;;;;;10.80;4.30;;;20.70;99.90;;;;;;5081240;28;20187;-86
2023/07/04 10:30:18;;;;;;;10.10;4.50;;;20.70;99.90;;;;;;5080312;28;20519;-84
2023/07/04 10:32:51;;;;;;;10.03;4.43;;;20.80;99.90;;;;;;5079644;28;20181;-83
2023/07/04 10:35:21;;;;;;;11.07;4.73;;;20.80;99.90;;;;;;5077285;28;20203;-85
2023/07/04 10:37:53;;;;;;;12.17;4.83;;;20.90;99.90;;;;;;5076089;28;20197;-86
2023/07/04 10:40:20;;;;;;;8.77;4.97;;;20.90;99.90;;;;;;5061949;28;20173;-85
2023/07/04 10:42:55;;;;;;;14.03;4.93;;;20.70;99.90;;;;;;5081614;28;20284;-84
2023/07/04 10:45:24;;;;;;;9.47;3.90;;;20.80;99.90;;;;;;5083644;28;20185;-84
2023/07/04 10:47:54;;;;;;;9.07;4.50;;;21.00;99.90;;;;;;5085326;28;20181;-84
2023/07/04 10:50:25;;;;;;;11.83;5.00;;;21.10;99.90;;;;;;5084803;28;20234;-86
2023/07/04 10:52:51;;;;;;;10.80;4.50;;;21.00;99.90;;;;;;5063535;28;20559;-84
2023/07/04 10:55:22;;;;;;;12.30;4.57;;;21.00;99.90;;;;;;5078005;28;20201;-85
2023/07/04 10:57:59;;;;;;;8.77;4.10;;;21.10;99.90;;;;;;5081081;28;20232;-85
2023/07/04 11:00:38;;;;;;;13.17;4.73;;;21.10;99.90;;;;;;5093146;28;20173;-84
2023/07/04 11:03:09;;;;;;;11.20;4.83;;;21.20;99.90;;;;;;5098737;28;20218;-83
2023/07/04 11:05:41;;;;;;;13.43;5.10;;;21.20;99.90;;;;;;5098061;28;20154;-83
2023/07/04 11:08:13;;;;;;;10.03;4.60;;;21.40;99.90;;;;;;5098936;28;20173;-81
2023/07/04 11:10:44;;;;;;;12.33;4.40;;;21.50;99.90;;;;;;5096815;28;20201;-81
2023/07/04 11:13:16;;;;;;;10.63;4.27;;;21.50;99.90;;;;;;5097542;28;20153;-83
2023/07/04 11:15:43;;;;;;;10.00;4.63;;;21.60;99.90;;;;;;5098367;28;20181;-82
2023/07/04 11:18:24;;;;;;;9.03;4.30;;;21.80;99.90;;;;;;5097508;28;20173;-82
2023/07/04 11:21:15;;;;;;;10.97;4.63;;;21.70;99.90;;;;;;5078249;28;20181;-85
2023/07/04 11:23:44;;;;;;;10.00;4.40;;;21.60;99.90;;;;;;5093871;28;20213;-84
2023/07/04 11:26:10;;;;;;;10.90;4.47;;;21.80;99.90;;;;;;5098985;28;20183;-81
2023/07/04 11:28:35;;;;;;;9.10;4.30;;;21.90;99.90;;;;;;5096905;28;20181;-83
2023/07/04 11:31:19;;;;;;;8.23;4.40;;;22.00;99.90;;;;;;5097077;28;20162;-84
2023/07/04 11:37:09;;;;;;;9.60;4.93;;;22.30;68.00;;;;;;5087458;28;20173;-83
2023/07/04 11:39:38;;;;;;;9.80;4.27;;;22.70;12.20;;;;;;5086003;28;20151;-85
2023/07/04 11:42:20;;;;;;;11.80;4.57;;;22.70;1.00;;;;;;5079075;28;20553;-84
2023/07/04 11:44:56;;;;;;;9.23;4.70;;;22.50;1.00;;;;;;5076950;28;20222;-86
2023/07/04 11:47:52;;;;;;;10.67;4.67;;;22.20;1.00;;;;;;5077675;28;20151;-85
2023/07/04 11:50:29;;;;;;;10.30;4.47;;;22.30;1.00;;;;;;5078767;28;20175;-85
2023/07/04 11:53:09;;;;;;;9.60;4.70;;;22.40;1.00;;;;;;5076287;28;20262;-86
2023/07/04 11:55:38;;;;;;;9.07;4.63;;;22.50;1.00;;;;;;5076244;28;20205;-84
2023/07/04 11:58:06;;;;;;;7.73;4.43;;;22.70;1.00;;;;;;5075671;28;20273;-82
2023/07/04 12:00:35;;;;;;;8.77;4.00;;;22.60;1.00;;;;;;5078020;28;20262;-84
2023/07/04 12:03:20;;;;;;;7.63;4.10;;;22.50;1.00;;;;;;5080689;28;20217;-85
2023/07/04 12:06:05;;;;;;;11.27;4.43;;;22.60;1.00;;;;;;5084229;28;20187;-84
2023/07/04 12:08:31;;;;;;;9.20;4.10;;;22.60;99.90;;;;;;5077684;28;20229;-86
2023/07/04 12:11:21;;;;;;;9.77;4.60;;;22.60;99.90;;;;;;5078634;28;20191;-84
2023/07/04 12:13:49;;;;;;;9.97;4.13;;;22.80;99.90;;;;;;5077306;28;20164;-86
2023/07/04 12:16:19;;;;;;;7.67;4.10;;;22.90;1.00;;;;;;5078640;28;20159;-84
2023/07/04 12:18:46;;;;;;;11.40;4.33;;;22.90;1.00;;;;;;5079936;28;20186;-83
2023/07/04 12:21:18;;;;;;;8.07;4.40;;;23.00;1.00;;;;;;5085294;28;20437;-83
2023/07/04 12:23:46;;;;;;;8.87;4.50;;;23.20;99.90;;;;;;5080548;28;20238;-85
2023/07/04 12:26:23;;;;;;;9.23;4.50;;;23.20;99.90;;;;;;5084325;28;20199;-85
2023/07/04 12:28:49;;;;;;;6.80;3.87;;;23.20;1.00;;;;;;5083769;28;20187;-84
2023/07/04 12:31:15;;;;;;;8.33;4.20;;;23.20;25.50;;;;;;5082610;28;20225;-84
2023/07/04 12:33:46;;;;;;;10.83;5.73;;;23.30;1.00;;;;;;5084637;28;20190;-82
2023/07/04 12:36:15;;;;;;;10.67;4.40;;;23.40;1.00;;;;;;5084162;28;20192;-84
2023/07/04 12:38:53;;;;;;;8.83;4.17;;;23.30;99.90;;;;;;5085003;28;20236;-85
2023/07/04 12:41:26;;;;;;;7.33;4.00;;;23.20;1.00;;;;;;5082020;28;20267;-85
2023/07/04 12:44:14;;;;;;;8.00;3.33;;;23.00;1.00;;;;;;5065911;28;20218;-85
2023/07/04 12:46:43;;;;;;;7.10;3.93;;;22.70;1.00;;;;;;5083107;28;20565;-84
2023/07/04 12:49:13;;;;;;;10.47;4.50;;;22.60;99.90;;;;;;5082873;28;20191;-87
2023/07/04 12:51:41;;;;;;;9.30;4.10;;;22.70;99.90;;;;;;5082239;28;20258;-84
2023/07/04 12:54:10;;;;;;;8.53;3.83;;;22.90;99.90;;;;;;5082359;28;20549;-83
2023/07/04 12:56:41;;;;;;;8.00;3.97;;;23.00;99.90;;;;;;5078594;28;20217;-85
2023/07/04 12:59:31;;;;;;;8.17;4.10;;;23.10;99.90;;;;;;5074128;28;20179;-85